sensor_id;sensor_type;location;lat;lon;timestamp;temperature;humidity
40696;DHT22;40425;51.102;17.208;2023-03-01T00:02:34;-1.10;99.90
40696;DHT22;40425;51.102;17.208;2023-03-01T00:07:35;-1.10;99.90
40696;DHT22;40425;51.102;17.208;2023-03-01T00:12:36;-1.30;99.90
40696;DHT22;40425;51.102;17.208;2023-03-01T00:17:37;-1.40;99.90
40696;DHT22;40425;51.102;17.208;2023-03-01T00:22:38;-1.30;99.90
40696;DHT22;40425;51.102;17.208;2023-03-01T00:27:38;-1.50;99.90
40696;DHT22;40425;51.102;17.208;2023-03-01T00:32:39;-1.60;99.90
40696;DHT22;40425;51.102;17.208;2023-03-01T00:37:40;-1.70;99.90
40696;DHT22;40425;51.102;17.208;2023-03-01T00:42:41;-1.70;99.90
40696;DHT22;40425;51.102;17.208;2023-03-01T00:47:43;-1.50;99.90
40696;DHT22;40425;51.102;17.208;2023-03-01T00:52:44;-1.50;99.90
40696;DHT22;40425;51.102;17.208;2023-03-01T00:57:45;-1.70;99.90
40696;DHT22;40425;51.102;17.208;2023-03-01T01:02:46;-1.70;99.90
40696;DHT22;40425;51.102;17.208;2023-03-01T01:07:47;-1.60;99.90
40696;DHT22;40425;51.102;17.208;2023-03-01T01:12:48;-1.70;99.90
40696;DHT22;40425;51.102;17.208;2023-03-01T01:17:49;-1.70;99.90
40696;DHT22;40425;51.102;17.208;2023-03-01T01:22:50;-2.20;99.90
40696;DHT22;40425;51.102;17.208;2023-03-01T01:27:51;-2.40;99.90
40696;DHT22;40425;51.102;17.208;2023-03-01T01:32:52;-2.00;99.90
40696;DHT22;40425;51.102;17.208;2023-03-01T01:37:53;-2.00;99.90
40696;DHT22;40425;51.102;17.208;2023-03-01T01:42:54;-2.00;99.90
40696;DHT22;40425;51.102;17.208;2023-03-01T01:48:38;-2.00;99.90
40696;DHT22;40425;51.102;17.208;2023-03-01T01:53:24;-2.10;99.90
40696;DHT22;40425;51.102;17.208;2023-03-01T01:58:29;-2.20;99.90
40696;DHT22;40425;51.102;17.208;2023-03-01T02:03:32;-2.10;99.90
40696;DHT22;40425;51.102;17.208;2023-03-01T02:08:38;-2.00;99.90
40696;DHT22;40425;51.102;17.208;2023-03-01T02:13:41;-2.10;99.90
40696;DHT22;40425;51.102;17.208;2023-03-01T02:18:43;-2.20;99.90
40696;DHT22;40425;51.102;17.208;2023-03-01T02:23:45;-2.50;99.90
40696;DHT22;40425;51.102;17.208;2023-03-01T02:28:46;-2.40;99.90
40696;DHT22;40425;51.102;17.208;2023-03-01T02:33:47;-2.20;99.90
40696;DHT22;40425;51.102;17.208;2023-03-01T02:38:53;-2.10;99.90
40696;DHT22;40425;51.102;17.208;2023-03-01T02:43:56;-2.10;99.90
40696;DHT22;40425;51.102;17.208;2023-03-01T02:48:58;-2.20;99.90
40696;DHT22;40425;51.102;17.208;2023-03-01T02:54:15;-2.20;99.90
40696;DHT22;40425;51.102;17.208;2023-03-01T02:59:20;-2.30;99.90
40696;DHT22;40425;51.102;17.208;2023-03-01T03:04:22;-2.20;99.90
40696;DHT22;40425;51.102;17.208;2023-03-01T03:09:23;-2.40;99.90
40696;DHT22;40425;51.102;17.208;2023-03-01T03:14:24;-2.50;99.90
40696;DHT22;40425;51.102;17.208;2023-03-01T03:19:25;-2.40;99.90
40696;DHT22;40425;51.102;17.208;2023-03-01T03:24:26;-2.50;99.90
40696;DHT22;40425;51.102;17.208;2023-03-01T03:29:29;-2.60;99.90
40696;DHT22;40425;51.102;17.208;2023-03-01T03:34:30;-2.50;99.90
40696;DHT22;40425;51.102;17.208;2023-03-01T03:39:31;-2.50;99.90
40696;DHT22;40425;51.102;17.208;2023-03-01T03:44:35;-2.50;99.90
40696;DHT22;40425;51.102;17.208;2023-03-01T03:49:37;-2.60;99.90
40696;DHT22;40425;51.102;17.208;2023-03-01T03:54:37;-2.70;99.90
40696;DHT22;40425;51.102;17.208;2023-03-01T03:59:38;-2.70;99.90
40696;DHT22;40425;51.102;17.208;2023-03-01T04:04:39;-2.60;99.90
40696;DHT22;40425;51.102;17.208;2023-03-01T04:09:40;-2.60;99.90
40696;DHT22;40425;51.102;17.208;2023-03-01T04:14:43;-2.50;99.90
40696;DHT22;40425;51.102;17.208;2023-03-01T04:19:43;-2.50;99.90
40696;DHT22;40425;51.102;17.208;2023-03-01T04:24:49;-2.60;99.90
40696;DHT22;40425;51.102;17.208;2023-03-01T04:29:49;-2.60;99.90
40696;DHT22;40425;51.102;17.208;2023-03-01T04:34:50;-2.60;99.90
40696;DHT22;40425;51.102;17.208;2023-03-01T04:39:51;-2.60;99.90
40696;DHT22;40425;51.102;17.208;2023-03-01T04:44:52;-2.70;99.90
40696;DHT22;40425;51.102;17.208;2023-03-01T04:49:53;-2.80;99.90
40696;DHT22;40425;51.102;17.208;2023-03-01T04:54:54;-2.90;99.90
40696;DHT22;40425;51.102;17.208;2023-03-01T04:59:55;-2.80;99.90
40696;DHT22;40425;51.102;17.208;2023-03-01T05:04:56;-2.80;99.90
40696;DHT22;40425;51.102;17.208;2023-03-01T05:09:58;-2.90;99.90
40696;DHT22;40425;51.102;17.208;2023-03-01T05:14:58;-2.90;99.90
40696;DHT22;40425;51.102;17.208;2023-03-01T05:20:00;-2.90;99.90
40696;DHT22;40425;51.102;17.208;2023-03-01T05:25:02;-2.90;99.90
40696;DHT22;40425;51.102;17.208;2023-03-01T05:30:03;-2.90;99.90
40696;DHT22;40425;51.102;17.208;2023-03-01T05:35:14;-2.90;99.90
40696;DHT22;40425;51.102;17.208;2023-03-01T05:40:20;-2.90;99.90
40696;DHT22;40425;51.102;17.208;2023-03-01T05:45:24;-2.80;99.90
40696;DHT22;40425;51.102;17.208;2023-03-01T05:50:28;-2.90;99.90
40696;DHT22;40425;51.102;17.208;2023-03-01T05:55:30;-2.90;99.90
40696;DHT22;40425;51.102;17.208;2023-03-01T06:00:32;-2.90;99.90
40696;DHT22;40425;51.102;17.208;2023-03-01T06:05:33;-2.80;99.90
40696;DHT22;40425;51.102;17.208;2023-03-01T06:10:34;-2.80;99.90
40696;DHT22;40425;51.102;17.208;2023-03-01T06:15:34;-2.70;99.90
40696;DHT22;40425;51.102;17.208;2023-03-01T06:20:35;-2.60;99.90
40696;DHT22;40425;51.102;17.208;2023-03-01T06:25:37;-2.50;99.90
40696;DHT22;40425;51.102;17.208;2023-03-01T06:30:38;-2.30;99.90
40696;DHT22;40425;51.102;17.208;2023-03-01T06:35:39;-2.30;99.90
40696;DHT22;40425;51.102;17.208;2023-03-01T06:40:40;-2.10;99.90
40696;DHT22;40425;51.102;17.208;2023-03-01T06:45:41;-2.00;99.90
40696;DHT22;40425;51.102;17.208;2023-03-01T06:50:43;-1.80;99.90
40696;DHT22;40425;51.102;17.208;2023-03-01T06:55:45;-1.60;99.90
40696;DHT22;40425;51.102;17.208;2023-03-01T07:00:46;-1.50;99.90
40696;DHT22;40425;51.102;17.208;2023-03-01T07:05:50;-1.40;99.90
40696;DHT22;40425;51.102;17.208;2023-03-01T07:10:58;-1.20;99.90
40696;DHT22;40425;51.102;17.208;2023-03-01T07:15:59;-1.10;99.90
40696;DHT22;40425;51.102;17.208;2023-03-01T07:51:49;-0.10;99.90
40696;DHT22;40425;51.102;17.208;2023-03-01T07:56:50;0.00;99.90
40696;DHT22;40425;51.102;17.208;2023-03-01T08:01:52;0.00;99.90
40696;DHT22;40425;51.102;17.208;2023-03-01T08:06:54;0.30;99.90
40696;DHT22;40425;51.102;17.208;2023-03-01T08:11:57;0.40;99.90
40696;DHT22;40425;51.102;17.208;2023-03-01T08:16:59;0.40;99.90
40696;DHT22;40425;51.102;17.208;2023-03-01T08:22:03;0.60;99.90
40696;DHT22;40425;51.102;17.208;2023-03-01T08:27:04;0.60;99.90
40696;DHT22;40425;51.102;17.208;2023-03-01T08:32:06;0.80;99.90
40696;DHT22;40425;51.102;17.208;2023-03-01T08:37:07;0.90;99.90
40696;DHT22;40425;51.102;17.208;2023-03-01T08:42:08;1.00;99.90
40696;DHT22;40425;51.102;17.208;2023-03-01T08:47:09;0.90;99.90
40696;DHT22;40425;51.102;17.208;2023-03-01T08:52:10;1.00;99.90
40696;DHT22;40425;51.102;17.208;2023-03-01T08:57:11;1.10;99.90
40696;DHT22;40425;51.102;17.208;2023-03-01T09:02:16;1.10;99.90
40696;DHT22;40425;51.102;17.208;2023-03-01T09:07:17;1.20;99.90
40696;DHT22;40425;51.102;17.208;2023-03-01T09:12:18;1.40;99.90
40696;DHT22;40425;51.102;17.208;2023-03-01T09:17:19;1.50;99.90
40696;DHT22;40425;51.102;17.208;2023-03-01T09:22:22;1.50;99.90
40696;DHT22;40425;51.102;17.208;2023-03-01T09:27:22;1.60;99.90
40696;DHT22;40425;51.102;17.208;2023-03-01T09:32:25;1.70;99.90
40696;DHT22;40425;51.102;17.208;2023-03-01T09:37:26;1.80;99.90
40696;DHT22;40425;51.102;17.208;2023-03-01T09:42:28;1.90;99.90
40696;DHT22;40425;51.102;17.208;2023-03-01T09:47:33;2.10;99.90
40696;DHT22;40425;51.102;17.208;2023-03-01T09:57:55;2.20;99.90
40696;DHT22;40425;51.102;17.208;2023-03-01T10:18:37;2.30;99.90
40696;DHT22;40425;51.102;17.208;2023-03-01T10:23:39;2.40;99.90
40696;DHT22;40425;51.102;17.208;2023-03-01T10:29:11;2.60;99.90
40696;DHT22;40425;51.102;17.208;2023-03-01T10:34:19;2.70;99.90
40696;DHT22;40425;51.102;17.208;2023-03-01T10:39:22;2.70;99.90
40696;DHT22;40425;51.102;17.208;2023-03-01T10:44:47;2.80;99.90
40696;DHT22;40425;51.102;17.208;2023-03-01T10:50:00;2.80;99.90
40696;DHT22;40425;51.102;17.208;2023-03-01T10:55:27;2.80;99.90
40696;DHT22;40425;51.102;17.208;2023-03-01T11:00:29;2.90;99.90
40696;DHT22;40425;51.102;17.208;2023-03-01T11:05:30;2.90;99.90
40696;DHT22;40425;51.102;17.208;2023-03-01T11:10:35;3.00;99.90
40696;DHT22;40425;51.102;17.208;2023-03-01T11:15:36;3.10;99.90
40696;DHT22;40425;51.102;17.208;2023-03-01T11:20:37;3.20;99.90
40696;DHT22;40425;51.102;17.208;2023-03-01T11:25:42;3.30;99.90
40696;DHT22;40425;51.102;17.208;2023-03-01T11:36:10;3.50;99.90
40696;DHT22;40425;51.102;17.208;2023-03-01T11:41:20;3.50;99.90
40696;DHT22;40425;51.102;17.208;2023-03-01T11:46:38;3.70;99.90
40696;DHT22;40425;51.102;17.208;2023-03-01T11:56:50;3.80;99.90
40696;DHT22;40425;51.102;17.208;2023-03-01T12:12:31;4.00;99.90
40696;DHT22;40425;51.102;17.208;2023-03-01T12:38:55;4.50;97.10
40696;DHT22;40425;51.102;17.208;2023-03-01T12:44:28;4.60;96.50
40696;DHT22;40425;51.102;17.208;2023-03-01T12:49:57;4.80;95.20
40696;DHT22;40425;51.102;17.208;2023-03-01T12:55:01;4.80;93.60
40696;DHT22;40425;51.102;17.208;2023-03-01T13:00:36;4.90;91.80
40696;DHT22;40425;51.102;17.208;2023-03-01T13:06:19;4.90;91.80
40696;DHT22;40425;51.102;17.208;2023-03-01T13:11:23;4.90;92.90
40696;DHT22;40425;51.102;17.208;2023-03-01T13:21:31;5.10;91.10
40696;DHT22;40425;51.102;17.208;2023-03-01T13:27:08;5.10;90.40
40696;DHT22;40425;51.102;17.208;2023-03-01T13:32:29;5.10;93.10
40696;DHT22;40425;51.102;17.208;2023-03-01T13:37:34;5.20;93.40
40696;DHT22;40425;51.102;17.208;2023-03-01T13:42:44;5.30;93.70
40696;DHT22;40425;51.102;17.208;2023-03-01T13:47:53;5.30;91.20
40696;DHT22;40425;51.102;17.208;2023-03-01T13:53:02;5.30;92.10
40696;DHT22;40425;51.102;17.208;2023-03-01T13:58:43;5.30;91.70
40696;DHT22;40425;51.102;17.208;2023-03-01T14:03:39;5.40;90.50
40696;DHT22;40425;51.102;17.208;2023-03-01T14:08:43;5.30;91.80
40696;DHT22;40425;51.102;17.208;2023-03-01T14:13:48;5.50;93.30
40696;DHT22;40425;51.102;17.208;2023-03-01T14:24:20;5.50;92.00
40696;DHT22;40425;51.102;17.208;2023-03-01T14:29:35;5.50;90.60
40696;DHT22;40425;51.102;17.208;2023-03-01T14:34:36;5.50;88.50
40696;DHT22;40425;51.102;17.208;2023-03-01T14:39:42;5.60;89.60
40696;DHT22;40425;51.102;17.208;2023-03-01T14:44:46;5.60;88.70
40696;DHT22;40425;51.102;17.208;2023-03-01T14:49:50;5.60;88.10
40696;DHT22;40425;51.102;17.208;2023-03-01T14:54:54;5.70;86.80
40696;DHT22;40425;51.102;17.208;2023-03-01T14:59:58;5.60;89.70
40696;DHT22;40425;51.102;17.208;2023-03-01T15:05:02;5.60;89.50
40696;DHT22;40425;51.102;17.208;2023-03-01T15:15:30;5.50;89.60
40696;DHT22;40425;51.102;17.208;2023-03-01T15:20:33;5.50;90.10
40696;DHT22;40425;51.102;17.208;2023-03-01T15:25:36;5.50;90.40
40696;DHT22;40425;51.102;17.208;2023-03-01T15:30:39;5.60;89.90
40696;DHT22;40425;51.102;17.208;2023-03-01T15:35:44;5.50;90.50
40696;DHT22;40425;51.102;17.208;2023-03-01T15:40:51;5.50;91.70
40696;DHT22;40425;51.102;17.208;2023-03-01T15:45:58;5.40;91.50
40696;DHT22;40425;51.102;17.208;2023-03-01T15:50:59;5.30;92.50
40696;DHT22;40425;51.102;17.208;2023-03-01T15:56:01;5.30;93.50
40696;DHT22;40425;51.102;17.208;2023-03-01T16:01:02;5.30;93.90
40696;DHT22;40425;51.102;17.208;2023-03-01T16:06:03;5.10;96.40
40696;DHT22;40425;51.102;17.208;2023-03-01T16:11:09;5.00;99.90
40696;DHT22;40425;51.102;17.208;2023-03-01T16:16:13;5.00;99.20
40696;DHT22;40425;51.102;17.208;2023-03-01T16:21:20;4.90;99.40
40696;DHT22;40425;51.102;17.208;2023-03-01T16:26:21;4.80;99.90
40696;DHT22;40425;51.102;17.208;2023-03-01T16:31:23;4.50;99.90
40696;DHT22;40425;51.102;17.208;2023-03-01T16:36:27;4.30;99.90
40696;DHT22;40425;51.102;17.208;2023-03-01T16:41:32;4.30;99.90
40696;DHT22;40425;51.102;17.208;2023-03-01T16:46:33;4.20;99.90
40696;DHT22;40425;51.102;17.208;2023-03-01T16:51:35;4.00;99.90
40696;DHT22;40425;51.102;17.208;2023-03-01T16:56:36;3.90;99.90
40696;DHT22;40425;51.102;17.208;2023-03-01T17:01:39;3.70;99.90
40696;DHT22;40425;51.102;17.208;2023-03-01T17:06:41;3.60;99.90
40696;DHT22;40425;51.102;17.208;2023-03-01T17:11:42;3.40;99.90
40696;DHT22;40425;51.102;17.208;2023-03-01T17:16:43;3.20;99.90
40696;DHT22;40425;51.102;17.208;2023-03-01T17:21:45;3.40;99.90
40696;DHT22;40425;51.102;17.208;2023-03-01T17:26:46;3.50;99.90
40696;DHT22;40425;51.102;17.208;2023-03-01T17:31:47;3.50;99.90
40696;DHT22;40425;51.102;17.208;2023-03-01T17:36:48;3.50;99.90
40696;DHT22;40425;51.102;17.208;2023-03-01T17:41:52;3.40;99.90
40696;DHT22;40425;51.102;17.208;2023-03-01T17:46:53;3.10;99.90
40696;DHT22;40425;51.102;17.208;2023-03-01T17:51:54;3.20;99.90
40696;DHT22;40425;51.102;17.208;2023-03-01T17:56:56;3.30;99.90
40696;DHT22;40425;51.102;17.208;2023-03-01T18:01:59;3.30;99.90
40696;DHT22;40425;51.102;17.208;2023-03-01T18:07:01;3.30;99.90
40696;DHT22;40425;51.102;17.208;2023-03-01T18:12:02;2.90;99.90
40696;DHT22;40425;51.102;17.208;2023-03-01T18:17:03;2.60;99.90
40696;DHT22;40425;51.102;17.208;2023-03-01T18:22:12;2.40;99.90
40696;DHT22;40425;51.102;17.208;2023-03-01T18:27:13;2.20;99.90
40696;DHT22;40425;51.102;17.208;2023-03-01T18:32:14;2.10;99.90
40696;DHT22;40425;51.102;17.208;2023-03-01T18:37:15;2.20;99.90
40696;DHT22;40425;51.102;17.208;2023-03-01T18:42:17;2.10;99.90
40696;DHT22;40425;51.102;17.208;2023-03-01T18:47:20;2.00;99.90
40696;DHT22;40425;51.102;17.208;2023-03-01T18:52:21;2.00;99.90
40696;DHT22;40425;51.102;17.208;2023-03-01T18:57:22;1.80;99.90
40696;DHT22;40425;51.102;17.208;2023-03-01T19:02:22;1.50;99.90
40696;DHT22;40425;51.102;17.208;2023-03-01T19:07:23;1.00;99.90
40696;DHT22;40425;51.102;17.208;2023-03-01T19:12:26;1.10;99.90
40696;DHT22;40425;51.102;17.208;2023-03-01T19:17:28;1.20;99.90
40696;DHT22;40425;51.102;17.208;2023-03-01T19:22:30;1.20;99.90
40696;DHT22;40425;51.102;17.208;2023-03-01T19:27:31;1.10;99.90
40696;DHT22;40425;51.102;17.208;2023-03-01T19:32:33;1.00;99.90
40696;DHT22;40425;51.102;17.208;2023-03-01T19:37:35;1.00;99.90
40696;DHT22;40425;51.102;17.208;2023-03-01T19:42:37;1.00;99.90
40696;DHT22;40425;51.102;17.208;2023-03-01T19:47:39;0.90;99.90
40696;DHT22;40425;51.102;17.208;2023-03-01T19:52:41;0.90;99.90
40696;DHT22;40425;51.102;17.208;2023-03-01T19:57:43;0.80;99.90
40696;DHT22;40425;51.102;17.208;2023-03-01T20:02:45;0.60;99.90
40696;DHT22;40425;51.102;17.208;2023-03-01T20:07:49;0.70;99.90
40696;DHT22;40425;51.102;17.208;2023-03-01T20:12:51;0.80;99.90
40696;DHT22;40425;51.102;17.208;2023-03-01T20:22:54;0.70;99.90
40696;DHT22;40425;51.102;17.208;2023-03-01T20:27:55;0.60;99.90
40696;DHT22;40425;51.102;17.208;2023-03-01T20:32:55;0.50;99.90
40696;DHT22;40425;51.102;17.208;2023-03-01T20:37:56;0.40;99.90
40696;DHT22;40425;51.102;17.208;2023-03-01T20:42:59;0.30;99.90
40696;DHT22;40425;51.102;17.208;2023-03-01T20:48:00;0.20;99.90
40696;DHT22;40425;51.102;17.208;2023-03-01T20:53:01;0.20;99.90
40696;DHT22;40425;51.102;17.208;2023-03-01T20:58:02;0.10;99.90
40696;DHT22;40425;51.102;17.208;2023-03-01T21:03:03;0.00;99.90
40696;DHT22;40425;51.102;17.208;2023-03-01T21:08:04;0.00;99.90
40696;DHT22;40425;51.102;17.208;2023-03-01T21:13:05;-0.10;99.90
40696;DHT22;40425;51.102;17.208;2023-03-01T21:18:05;-0.20;99.90
40696;DHT22;40425;51.102;17.208;2023-03-01T21:23:06;-0.40;99.90
40696;DHT22;40425;51.102;17.208;2023-03-01T21:28:07;-0.30;99.90
40696;DHT22;40425;51.102;17.208;2023-03-01T21:33:08;-0.30;99.90
40696;DHT22;40425;51.102;17.208;2023-03-01T21:38:09;-0.30;99.90
40696;DHT22;40425;51.102;17.208;2023-03-01T21:43:10;-0.30;99.90
40696;DHT22;40425;51.102;17.208;2023-03-01T21:48:11;-0.30;99.90
40696;DHT22;40425;51.102;17.208;2023-03-01T21:53:11;-0.20;99.90
40696;DHT22;40425;51.102;17.208;2023-03-01T21:58:12;-0.30;99.90
40696;DHT22;40425;51.102;17.208;2023-03-01T22:03:14;-0.30;99.90
40696;DHT22;40425;51.102;17.208;2023-03-01T22:08:15;-0.40;99.90
40696;DHT22;40425;51.102;17.208;2023-03-01T22:13:16;-0.50;99.90
40696;DHT22;40425;51.102;17.208;2023-03-01T22:18:17;-0.50;99.90
40696;DHT22;40425;51.102;17.208;2023-03-01T22:23:18;-0.50;99.90
40696;DHT22;40425;51.102;17.208;2023-03-01T22:28:19;-0.50;99.90
40696;DHT22;40425;51.102;17.208;2023-03-01T22:33:20;-0.50;99.90
40696;DHT22;40425;51.102;17.208;2023-03-01T22:38:21;-0.70;99.90
40696;DHT22;40425;51.102;17.208;2023-03-01T22:43:22;-0.70;99.90
40696;DHT22;40425;51.102;17.208;2023-03-01T22:48:23;-0.70;99.90
40696;DHT22;40425;51.102;17.208;2023-03-01T22:53:24;-0.60;99.90
40696;DHT22;40425;51.102;17.208;2023-03-01T22:58:25;-0.60;99.90
40696;DHT22;40425;51.102;17.208;2023-03-01T23:03:26;-0.70;99.90
40696;DHT22;40425;51.102;17.208;2023-03-01T23:08:27;-0.70;99.90
40696;DHT22;40425;51.102;17.208;2023-03-01T23:13:28;-0.80;99.90
40696;DHT22;40425;51.102;17.208;2023-03-01T23:18:29;-0.80;99.90
40696;DHT22;40425;51.102;17.208;2023-03-01T23:23:30;-0.90;99.90
40696;DHT22;40425;51.102;17.208;2023-03-01T23:28:31;-0.80;99.90
40696;DHT22;40425;51.102;17.208;2023-03-01T23:33:33;-0.90;99.90
40696;DHT22;40425;51.102;17.208;2023-03-01T23:38:37;-1.00;99.90
40696;DHT22;40425;51.102;17.208;2023-03-01T23:43:38;-1.00;99.90
40696;DHT22;40425;51.102;17.208;2023-03-01T23:48:42;-1.00;99.90
40696;DHT22;40425;51.102;17.208;2023-03-01T23:53:46;-0.90;99.90
40696;DHT22;40425;51.102;17.208;2023-03-01T23:58:55;-0.90;99.90
